createdAt,value
2022-10-14T00:00:33.295Z,37.30
2022-10-14T00:03:00.886Z,37.95
2022-10-14T00:05:28.566Z,39.05
2022-10-14T00:07:56.936Z,37.80
2022-10-14T00:10:26.055Z,39.72
2022-10-14T00:12:53.789Z,39.97
2022-10-14T00:15:21.649Z,36.55
2022-10-14T00:17:49.505Z,40.40
2022-10-14T00:20:19.417Z,41.72
2022-10-14T00:22:47.184Z,45.13
2022-10-14T00:25:14.957Z,39.15
2022-10-14T00:27:42.828Z,42.30
2022-10-14T00:30:13.078Z,36.83
2022-10-14T00:32:41.633Z,41.08
2022-10-14T00:35:19.311Z,40.80
2022-10-14T00:37:47.079Z,42.63
2022-10-14T00:40:20.872Z,40.20
2022-10-14T00:42:49.774Z,44.92
2022-10-14T00:45:21.044Z,41.70
2022-10-14T00:48:14.200Z,40.95
2022-10-14T00:51:08.187Z,43.63
2022-10-14T00:53:36.812Z,41.10
2022-10-14T00:56:05.562Z,46.33
2022-10-14T00:58:52.051Z,42.42
2022-10-14T01:01:19.815Z,38.85
2022-10-14T01:03:47.565Z,39.65
2022-10-14T01:06:34.377Z,41.53
2022-10-14T01:11:53.688Z,42.85
2022-10-14T01:15:15.494Z,37.75
2022-10-14T01:20:26.091Z,41.25
2022-10-14T01:23:11.551Z,43.22
2022-10-14T01:26:20.400Z,45.23
2022-10-14T01:28:51.489Z,44.42
2022-10-14T01:31:24.788Z,42.28
2022-10-14T01:33:55.243Z,43.70
2022-10-14T01:37:01.133Z,41.45
2022-10-14T01:42:53.014Z,38.75
2022-10-14T01:45:22.664Z,40.67
2022-10-14T01:47:58.688Z,41.20
2022-10-14T01:50:34.582Z,39.63
2022-10-14T01:53:15.241Z,44.75
2022-10-14T01:55:45.259Z,37.78
2022-10-14T01:58:14.088Z,40.47
2022-10-14T02:00:41.954Z,39.67
2022-10-14T02:03:10.021Z,40.63
2022-10-14T02:05:57.969Z,39.70
2022-10-14T02:08:46.196Z,38.67
2022-10-14T02:11:18.878Z,45.78
2022-10-14T02:14:05.162Z,43.50
2022-10-14T02:16:39.991Z,45.97
2022-10-14T02:19:26.631Z,40.95
2022-10-14T02:22:04.613Z,42.35
2022-10-14T02:24:41.163Z,42.45
2022-10-14T02:27:12.625Z,39.67
2022-10-14T02:29:43.157Z,43.63
2022-10-14T02:32:11.936Z,43.17
2022-10-14T02:34:40.916Z,41.67
2022-10-14T02:37:11.044Z,40.72
2022-10-14T02:39:42.415Z,40.47
2022-10-14T02:42:10.280Z,40.22
2022-10-14T02:44:38.013Z,38.88
2022-10-14T02:47:05.773Z,39.75
2022-10-14T02:49:33.388Z,40.20
2022-10-14T02:52:01.008Z,41.47
2022-10-14T02:54:31.647Z,38.25
2022-10-14T02:56:59.332Z,44.40
2022-10-14T02:59:27.053Z,42.33
2022-10-14T03:01:56.215Z,40.63
2022-10-14T03:04:25.552Z,39.92
2022-10-14T03:06:54.054Z,42.85
2022-10-14T03:09:25.217Z,40.97
2022-10-14T03:11:53.176Z,40.25
2022-10-14T03:14:22.765Z,39.70
2022-10-14T03:16:51.649Z,40.72
2022-10-14T03:19:23.608Z,46.25
2022-10-14T03:21:54.562Z,40.63
2022-10-14T03:24:22.930Z,45.72
2022-10-14T03:27:06.706Z,40.08
2022-10-14T03:29:34.461Z,41.25
2022-10-14T03:32:19.411Z,40.90
2022-10-14T03:35:24.048Z,41.67
2022-10-14T03:37:55.464Z,43.42
2022-10-14T03:40:29.689Z,41.10
2022-10-14T03:43:01.244Z,43.67
2022-10-14T03:45:38.433Z,42.92
2022-10-14T03:48:09.365Z,40.45
2022-10-14T03:50:42.713Z,39.80
2022-10-14T03:53:10.848Z,43.38
2022-10-14T03:55:38.520Z,42.10
2022-10-14T03:58:08.351Z,41.03
2022-10-14T04:00:38.476Z,40.55
2022-10-14T04:03:23.871Z,41.10
2022-10-14T04:05:55.091Z,43.35
2022-10-14T04:08:25.080Z,41.67
2022-10-14T04:10:59.089Z,45.15
2022-10-14T04:13:30.985Z,47.20
2022-10-14T04:16:03.654Z,39.03
2022-10-14T04:18:41.259Z,46.70
2022-10-14T04:21:12.477Z,44.10
2022-10-14T04:23:43.298Z,45.75
2022-10-14T04:26:16.409Z,44.10
2022-10-14T04:28:46.473Z,44.20
2022-10-14T04:31:19.905Z,42.95
2022-10-14T04:33:53.912Z,43.00
2022-10-14T04:36:35.500Z,48.38
2022-10-14T04:39:06.045Z,44.40
2022-10-14T04:41:34.918Z,42.03
2022-10-14T04:44:03.118Z,45.55
2022-10-14T04:46:37.106Z,44.03
2022-10-14T04:49:05.401Z,44.67
2022-10-14T04:52:04.246Z,43.42
2022-10-14T04:54:48.724Z,41.55
2022-10-14T04:57:19.963Z,43.17
2022-10-14T05:00:09.625Z,45.33
2022-10-14T05:02:47.910Z,45.03
2022-10-14T05:05:15.617Z,39.80
2022-10-14T05:07:46.331Z,46.55
2022-10-14T05:10:29.038Z,41.60
2022-10-14T05:12:59.460Z,44.35
2022-10-14T05:15:31.437Z,43.05
2022-10-14T05:18:06.026Z,47.03
2022-10-14T05:21:02.474Z,46.35
2022-10-14T05:23:45.317Z,41.67
2022-10-14T05:26:12.851Z,46.17
2022-10-14T05:28:42.273Z,44.28
2022-10-14T05:31:13.423Z,46.03
2022-10-14T05:33:49.790Z,48.70
2022-10-14T05:36:17.627Z,45.58
2022-10-14T05:39:13.198Z,48.35
2022-10-14T05:41:40.839Z,46.75
2022-10-14T05:44:11.068Z,46.42
2022-10-14T05:46:39.712Z,43.22
2022-10-14T05:49:08.089Z,40.75
2022-10-14T05:51:38.142Z,41.70
2022-10-14T05:54:16.069Z,43.08
2022-10-14T05:56:44.721Z,42.25
2022-10-14T05:59:12.514Z,38.25
2022-10-14T06:01:41.297Z,40.33
2022-10-14T06:04:08.921Z,41.45
2022-10-14T06:06:36.605Z,40.80
2022-10-14T06:09:08.949Z,40.35
2022-10-14T06:11:41.290Z,39.17
2022-10-14T06:14:09.391Z,38.58
2022-10-14T06:16:37.088Z,40.20
2022-10-14T06:19:19.287Z,38.50
2022-10-14T06:21:49.500Z,39.17
2022-10-14T06:24:17.377Z,40.83
2022-10-14T06:26:45.022Z,40.13
2022-10-14T06:29:12.585Z,37.67
2022-10-14T06:31:40.770Z,39.15
2022-10-14T06:34:08.786Z,39.53
2022-10-14T06:36:39.346Z,34.10
2022-10-14T06:39:07.014Z,39.10
2022-10-14T06:41:34.615Z,38.20
2022-10-14T06:44:02.183Z,41.90
2022-10-14T06:46:30.835Z,44.25
2022-10-14T06:48:59.476Z,36.78
2022-10-14T06:51:30.838Z,40.40
2022-10-14T06:53:58.442Z,37.28
2022-10-14T06:56:26.004Z,38.95
2022-10-14T06:58:58.204Z,41.70
2022-10-14T07:01:30.378Z,44.83
2022-10-14T07:03:58.168Z,43.78
2022-10-14T07:06:28.283Z,42.88
2022-10-14T07:08:55.852Z,50.10
2022-10-14T07:11:23.412Z,46.85
2022-10-14T07:13:50.994Z,41.55
2022-10-14T07:16:20.478Z,46.65
2022-10-14T07:18:48.044Z,42.60
2022-10-14T07:21:15.866Z,44.20
2022-10-14T07:23:43.456Z,48.40
2022-10-14T07:26:11.078Z,37.30
2022-10-14T07:28:40.361Z,44.53
2022-10-14T07:31:09.420Z,44.30
2022-10-14T07:36:05.893Z,40.63
2022-10-14T07:38:33.773Z,40.75
2022-10-14T07:41:02.780Z,45.35
2022-10-14T07:43:30.489Z,38.33
2022-10-14T07:46:02.461Z,41.75
2022-10-14T07:49:14.703Z,36.03
2022-10-14T07:51:42.857Z,44.15
2022-10-14T07:54:14.001Z,37.22
2022-10-14T07:56:42.856Z,45.30
2022-10-14T07:59:10.968Z,39.03
2022-10-14T08:01:38.677Z,40.38
2022-10-14T08:04:08.569Z,39.22
2022-10-14T08:06:39.664Z,40.53
2022-10-14T08:09:31.999Z,43.00
2022-10-14T08:11:59.565Z,40.08
2022-10-14T08:14:27.197Z,38.30
2022-10-14T08:17:45.122Z,41.85
2022-10-14T08:20:12.782Z,37.95
2022-10-14T08:22:40.500Z,37.35
2022-10-14T08:25:50.273Z,43.28
2022-10-14T08:28:20.423Z,38.35
2022-10-14T08:38:15.609Z,37.63
2022-10-14T08:41:31.422Z,38.13
2022-10-14T08:44:52.930Z,37.10
2022-10-14T08:50:41.317Z,42.15
2022-10-14T08:53:18.008Z,36.10
2022-10-14T08:59:20.616Z,33.25
2022-10-14T09:01:57.661Z,37.05
2022-10-14T09:04:25.619Z,38.25
2022-10-14T09:06:54.428Z,37.33
2022-10-14T09:09:25.028Z,39.92
2022-10-14T09:11:57.036Z,39.15
2022-10-14T09:14:26.744Z,38.83
2022-10-14T09:16:57.753Z,43.17
2022-10-14T09:19:32.325Z,42.75
2022-10-14T09:22:00.277Z,36.75
2022-10-14T09:27:17.859Z,45.22
2022-10-14T09:29:51.728Z,44.33
2022-10-14T09:32:30.552Z,42.88
2022-10-14T09:34:58.649Z,39.10
2022-10-14T09:37:36.820Z,39.22
2022-10-14T09:43:39.881Z,43.60
2022-10-14T09:46:11.389Z,44.28
2022-10-14T09:52:24.229Z,38.97
2022-10-14T09:54:56.867Z,41.20
2022-10-14T10:04:30.991Z,35.10
2022-10-14T10:07:24.773Z,35.03
2022-10-14T10:12:55.512Z,43.40
2022-10-14T10:15:23.113Z,39.20
2022-10-14T10:17:51.085Z,41.15
2022-10-14T10:20:28.035Z,36.00
2022-10-14T10:23:21.064Z,40.20
2022-10-14T10:25:48.611Z,43.83
2022-10-14T10:28:32.700Z,44.78
2022-10-14T10:31:00.307Z,40.72
2022-10-14T10:33:40.823Z,41.65
2022-10-14T10:36:28.994Z,41.75
2022-10-14T10:39:19.780Z,41.25
2022-10-14T10:42:07.814Z,44.35
2022-10-14T10:44:54.924Z,43.65
2022-10-14T10:47:46.882Z,48.45
2022-10-14T10:50:33.058Z,42.95
2022-10-14T10:55:31.911Z,44.72
2022-10-14T10:58:08.990Z,46.75
2022-10-14T11:00:44.232Z,44.92
2022-10-14T11:13:20.749Z,45.47
2022-10-14T11:15:57.530Z,43.30
2022-10-14T11:18:51.617Z,49.45
2022-10-14T11:21:31.104Z,44.03
2022-10-14T11:24:06.236Z,53.20
2022-10-14T11:29:16.250Z,47.90
2022-10-14T11:31:51.970Z,40.45
2022-10-14T11:34:34.369Z,47.90
2022-10-14T11:37:07.742Z,50.50
2022-10-14T11:39:44.444Z,43.40
2022-10-14T11:42:26.665Z,51.30
2022-10-14T11:45:07.072Z,51.72
2022-10-14T11:47:36.681Z,53.10
2022-10-14T11:50:12.128Z,50.50
2022-10-14T11:52:43.740Z,53.60
2022-10-14T11:56:01.794Z,47.30
2022-10-14T11:58:30.335Z,48.38
2022-10-14T12:01:01.260Z,51.85
2022-10-14T12:03:50.739Z,50.50
2022-10-14T12:06:20.998Z,44.22
2022-10-14T12:08:55.380Z,48.88
2022-10-14T12:11:38.822Z,49.78
2022-10-14T12:14:18.651Z,52.67
2022-10-14T12:16:47.649Z,49.60
2022-10-14T12:19:18.186Z,51.95
2022-10-14T12:22:05.095Z,48.67
2022-10-14T12:24:36.540Z,45.67
2022-10-14T12:27:05.398Z,45.85
2022-10-14T12:29:35.849Z,49.25
2022-10-14T12:32:09.473Z,49.35
2022-10-14T12:34:40.804Z,47.88
2022-10-14T12:37:30.753Z,48.88
2022-10-14T12:40:06.795Z,47.13
2022-10-14T12:42:39.429Z,48.75
2022-10-14T12:45:16.423Z,51.33
2022-10-14T12:47:44.206Z,47.97
2022-10-14T12:50:31.938Z,48.67
2022-10-14T12:53:03.372Z,44.70
2022-10-14T12:55:36.418Z,50.33
2022-10-14T12:58:06.141Z,47.85
2022-10-14T13:00:43.341Z,47.45
2022-10-14T13:03:19.951Z,44.88
2022-10-14T13:05:47.991Z,52.47
2022-10-14T13:08:25.479Z,56.95
2022-10-14T13:10:55.988Z,55.78
2022-10-14T13:13:52.113Z,52.20
2022-10-14T13:16:25.738Z,56.13
2022-10-14T13:18:57.965Z,45.65
2022-10-14T13:21:31.092Z,51.42
2022-10-14T13:24:10.609Z,45.20
2022-10-14T13:26:47.263Z,48.70
2022-10-14T13:29:20.934Z,52.17
2022-10-14T13:32:12.407Z,53.80
2022-10-14T13:34:48.177Z,49.53
2022-10-14T13:37:29.798Z,43.60
2022-10-14T13:40:00.602Z,35.92
2022-10-14T13:42:32.090Z,43.97
2022-10-14T13:45:05.764Z,43.45
2022-10-14T13:47:43.980Z,52.85
2022-10-14T13:50:13.339Z,32.92
2022-10-14T13:52:41.250Z,45.80
2022-10-14T13:55:14.375Z,41.53
2022-10-14T13:58:12.467Z,42.83
2022-10-14T14:00:59.607Z,43.13
2022-10-14T14:03:36.118Z,34.97
2022-10-14T14:06:09.844Z,43.47
2022-10-14T14:08:41.826Z,51.28
2022-10-14T14:11:18.636Z,38.53
2022-10-14T14:14:01.080Z,40.20
2022-10-14T14:16:39.211Z,38.42
2022-10-14T14:19:09.318Z,39.33
2022-10-14T14:21:38.435Z,39.17
2022-10-14T14:24:11.667Z,42.55
2022-10-14T14:26:39.669Z,42.70
2022-10-14T14:29:27.452Z,37.78
2022-10-14T14:32:06.008Z,36.88
2022-10-14T14:34:36.035Z,38.15
2022-10-14T14:40:22.327Z,38.00
2022-10-14T14:42:52.126Z,42.78
2022-10-14T14:45:25.345Z,32.58
2022-10-14T14:47:54.034Z,29.50
2022-10-14T14:50:37.589Z,37.08
2022-10-14T14:53:10.859Z,35.63
2022-10-14T14:55:44.712Z,36.00
2022-10-14T14:58:21.907Z,37.13
2022-10-14T15:00:54.806Z,34.95
2022-10-14T15:03:32.303Z,37.03
2022-10-14T15:06:01.115Z,27.88
2022-10-14T15:08:30.219Z,34.15
2022-10-14T15:10:58.465Z,33.47
2022-10-14T15:13:41.164Z,38.03
2022-10-14T15:16:08.783Z,32.95
2022-10-14T15:18:37.776Z,39.55
2022-10-14T15:21:12.518Z,32.92
2022-10-14T15:23:41.382Z,35.47
2022-10-14T15:26:23.356Z,33.92
2022-10-14T15:29:06.404Z,37.25
2022-10-14T15:31:34.650Z,32.13
2022-10-14T15:34:02.736Z,30.65
2022-10-14T15:36:31.609Z,32.70
2022-10-14T15:39:01.469Z,30.30
2022-10-14T15:41:29.468Z,35.03
2022-10-14T15:43:57.125Z,31.92
2022-10-14T15:46:43.658Z,38.20
2022-10-14T15:49:26.511Z,31.75
2022-10-14T15:51:54.103Z,30.88
2022-10-14T15:54:27.159Z,32.88
2022-10-14T15:56:58.091Z,32.08
2022-10-14T15:59:25.950Z,30.17
2022-10-14T16:01:53.723Z,31.85
2022-10-14T16:04:24.240Z,35.00
2022-10-14T16:06:55.633Z,31.13
2022-10-14T16:09:23.555Z,31.92
2022-10-14T16:11:57.175Z,35.10
2022-10-14T16:14:27.139Z,28.67
2022-10-14T16:16:54.875Z,32.55
2022-10-14T16:19:22.463Z,27.40
2022-10-14T16:21:50.142Z,33.05
2022-10-14T16:24:18.790Z,29.80
2022-10-14T16:26:48.018Z,29.70
2022-10-14T16:29:20.781Z,27.83
2022-10-14T16:31:49.990Z,32.08
2022-10-14T16:34:18.033Z,36.95
2022-10-14T16:36:46.116Z,34.15
2022-10-14T16:39:39.553Z,37.15
2022-10-14T16:42:10.693Z,31.08
2022-10-14T16:44:38.637Z,28.13
2022-10-14T16:47:19.526Z,33.90
2022-10-14T16:49:51.064Z,30.98
2022-10-14T16:52:18.996Z,34.95
2022-10-14T16:54:47.701Z,38.92
2022-10-14T16:57:15.437Z,35.08
2022-10-14T16:59:42.968Z,36.25
2022-10-14T17:02:14.468Z,34.78
2022-10-14T17:04:42.388Z,39.65
2022-10-14T17:07:12.286Z,35.20
2022-10-14T17:09:39.926Z,35.25
2022-10-14T17:12:12.885Z,37.00
2022-10-14T17:14:41.816Z,35.20
2022-10-14T17:17:10.310Z,35.17
2022-10-14T17:19:38.561Z,35.50
2022-10-14T17:22:34.768Z,35.30
2022-10-14T17:25:02.594Z,36.22
2022-10-14T17:27:30.334Z,36.00
2022-10-14T17:29:58.082Z,40.63
2022-10-14T17:32:28.109Z,40.97
2022-10-14T17:34:55.751Z,37.90
2022-10-14T17:37:23.544Z,40.20
2022-10-14T17:39:53.730Z,44.15
2022-10-14T17:42:21.537Z,43.80
2022-10-14T17:44:50.912Z,38.92
2022-10-14T17:47:18.490Z,48.10
2022-10-14T17:49:50.688Z,43.90
2022-10-14T17:52:18.295Z,45.65
2022-10-14T17:54:45.840Z,39.35
2022-10-14T17:57:13.766Z,42.45
2022-10-14T17:59:41.378Z,45.63
2022-10-14T18:02:11.712Z,45.25
2022-10-14T18:04:39.557Z,48.67
2022-10-14T18:07:07.078Z,42.15
2022-10-14T18:09:59.505Z,46.63
2022-10-14T18:12:27.072Z,42.67
2022-10-14T18:14:54.603Z,42.97
2022-10-14T18:17:26.276Z,47.90
2022-10-14T18:19:53.968Z,45.65
2022-10-14T18:22:27.071Z,47.35
2022-10-14T18:24:54.675Z,41.72
2022-10-14T18:27:49.396Z,52.10
2022-10-14T18:30:16.971Z,51.47
2022-10-14T18:32:44.624Z,47.95
2022-10-14T18:35:12.249Z,42.10
2022-10-14T18:37:39.841Z,45.38
2022-10-14T18:43:12.376Z,41.83
2022-10-14T18:45:40.051Z,44.75
2022-10-14T18:48:26.104Z,43.92
2022-10-14T18:50:58.976Z,41.85
2022-10-14T18:53:27.139Z,56.17
2022-10-14T18:56:45.034Z,46.78
2022-10-14T18:59:14.797Z,43.00
2022-10-14T19:01:46.006Z,48.40
2022-10-14T19:04:14.383Z,48.67
2022-10-14T19:06:44.884Z,51.25
2022-10-14T19:09:13.571Z,46.33
2022-10-14T19:11:41.798Z,48.67
2022-10-14T19:14:17.566Z,53.72
2022-10-14T19:16:47.477Z,50.42
2022-10-14T19:19:18.162Z,51.25
2022-10-14T19:21:46.589Z,51.15
2022-10-14T19:24:14.310Z,51.83
2022-10-14T19:26:43.877Z,47.63
2022-10-14T19:29:13.622Z,50.35
2022-10-14T19:31:42.222Z,48.78
2022-10-14T19:37:50.232Z,53.50
2022-10-14T19:40:19.922Z,50.33
2022-10-14T19:42:50.413Z,57.25
2022-10-14T19:45:45.766Z,59.50
2022-10-14T19:48:15.689Z,60.78
2022-10-14T19:54:24.920Z,64.53
2022-10-14T19:57:19.929Z,60.80
2022-10-14T19:59:47.515Z,64.75
2022-10-14T20:02:15.079Z,66.90
2022-10-14T20:04:42.560Z,68.05
2022-10-14T20:07:10.125Z,63.35
2022-10-14T20:09:37.674Z,64.10
2022-10-14T20:12:05.267Z,68.70
2022-10-14T20:14:32.762Z,58.38
2022-10-14T20:17:03.249Z,61.25
2022-10-14T20:19:30.885Z,59.42
2022-10-14T20:22:01.749Z,59.78
2022-10-14T20:24:32.257Z,62.58
2022-10-14T20:26:59.798Z,60.78
2022-10-14T20:29:27.343Z,59.50
2022-10-14T20:31:54.915Z,60.30
2022-10-14T20:34:22.665Z,66.38
2022-10-14T20:36:50.168Z,62.58
2022-10-14T20:39:17.754Z,64.65
2022-10-14T20:41:45.256Z,60.92
2022-10-14T20:44:12.760Z,65.45
2022-10-14T20:46:40.297Z,67.72
2022-10-14T20:49:07.904Z,63.45
2022-10-14T20:55:01.189Z,59.92
2022-10-14T20:57:30.969Z,59.83
2022-10-14T20:59:58.488Z,54.53
2022-10-14T21:02:26.420Z,56.22
2022-10-14T21:04:54.201Z,61.42
2022-10-14T21:07:22.278Z,57.80
2022-10-14T21:09:50.624Z,62.55
2022-10-14T21:12:18.271Z,61.67
2022-10-14T21:14:45.799Z,64.53
2022-10-14T21:17:19.524Z,56.60
2022-10-14T21:19:49.246Z,64.60
2022-10-14T21:25:23.590Z,58.72
2022-10-14T21:28:03.986Z,62.22
2022-10-14T21:30:31.649Z,61.03
2022-10-14T21:32:59.163Z,65.47
2022-10-14T21:35:27.071Z,59.95
2022-10-14T21:38:04.160Z,66.78
2022-10-14T21:40:31.885Z,63.80
2022-10-14T21:42:59.545Z,65.28
2022-10-14T21:45:27.309Z,63.42
2022-10-14T21:47:54.914Z,63.95
2022-10-14T21:50:22.563Z,61.65
2022-10-14T21:52:50.096Z,68.35
2022-10-14T21:55:17.634Z,64.70
2022-10-14T21:57:49.434Z,64.07
2022-10-14T22:00:20.815Z,64.65
2022-10-14T22:02:48.589Z,65.65
2022-10-14T22:05:16.227Z,70.85
2022-10-14T22:07:44.163Z,63.60
2022-10-14T22:10:33.022Z,66.80
2022-10-14T22:13:27.322Z,69.63
2022-10-14T22:15:58.829Z,63.53
2022-10-14T22:18:26.486Z,70.00
2022-10-14T22:21:00.776Z,65.25
2022-10-14T22:23:28.300Z,67.00
2022-10-14T22:25:55.842Z,69.53
2022-10-14T22:28:23.370Z,65.03
2022-10-14T22:30:50.931Z,73.32
2022-10-14T22:33:18.420Z,71.90
2022-10-14T22:35:45.985Z,75.30
2022-10-14T22:38:13.965Z,69.45
2022-10-14T22:40:41.902Z,71.85
2022-10-14T22:43:09.444Z,67.80
2022-10-14T22:45:36.918Z,71.15
2022-10-14T22:48:04.517Z,67.45
2022-10-14T22:50:32.034Z,71.20
2022-10-14T22:52:59.526Z,71.57
2022-10-14T22:55:27.072Z,69.78
2022-10-14T22:57:54.594Z,71.22
2022-10-14T23:00:25.025Z,68.68
2022-10-14T23:02:55.258Z,69.03
2022-10-14T23:05:23.023Z,74.60
2022-10-14T23:07:50.602Z,70.70
2022-10-14T23:10:20.150Z,73.03
2022-10-14T23:12:47.836Z,67.22
2022-10-14T23:15:15.312Z,69.40
2022-10-14T23:17:43.127Z,71.40
2022-10-14T23:20:14.796Z,71.47
2022-10-14T23:22:42.311Z,72.68
2022-10-14T23:25:10.267Z,69.97
2022-10-14T23:27:51.089Z,68.20
2022-10-14T23:30:18.764Z,70.55
2022-10-14T23:32:46.290Z,71.30
2022-10-14T23:35:13.914Z,67.38
2022-10-14T23:37:56.559Z,69.05
2022-10-14T23:40:24.223Z,66.15
2022-10-14T23:42:51.748Z,62.67
2022-10-14T23:45:21.695Z,63.15
2022-10-14T23:47:49.660Z,68.07
2022-10-14T23:51:05.763Z,67.35
2022-10-14T23:53:33.809Z,67.45
2022-10-14T23:56:27.473Z,69.32
2022-10-14T23:58:55.008Z,68.82
